• Join FlightAware (Why Join?)
  • Login
  • US Flag 
05:30AM EST


 

Airport Tracker/Info


-or-


 

Live Flight TrackerFlight Track Log ✈ JTA62 ✈ 21-Apr-2013 ✈ ROAH / OKA - RJFF / FUK

Flight Track Log - Related Links

Times and Time Zones

All times are in EDT time to prevent confusion due to time zone crossing. See the JTA62 flight status page for this flight to view local times or setup timezone preferences in your user account.

Time Position Orientation Groundspeed Altitude Reporting Facility
EDT Latitude Longitude Course Direction KTS MPH feet Rate Location/Type
07:03AM 26.4848 127.7478 18° North  Level Estimated
07:04AM 26.5811 127.7819 18° North  Level Estimated
07:05AM 26.6773 127.8161 18° North  Level Estimated
07:06AM 26.7736 127.8503 18° North  Level Estimated
07:07AM 26.8699 127.8846 18° North  Level Estimated
07:08AM 26.9662 127.9189 18° North  Level Estimated
07:09AM 27.0624 127.9533 18° North  Level Estimated
07:10AM 27.1587 127.9877 18° North  Level Estimated
07:11AM 27.2549 128.0222 18° North  Level Estimated
07:12AM 27.3512 128.0568 18° North  Level Estimated
07:13AM 27.4474 128.0914 18° North  Level Estimated
07:14AM 27.5436 128.1261 18° North  Level Estimated
07:15AM 27.6398 128.1608 18° North  Level Estimated
07:16AM 27.7360 128.1956 18° North  Level Estimated
07:17AM 27.8322 128.2305 18° North  Level Estimated
07:18AM 27.9284 128.2655 18° North  Level Estimated
07:19AM 28.0245 128.3004 18° North  Level Estimated
07:20AM 28.1207 128.3355 18° North  Level Estimated
07:21AM 28.2169 128.3706 18° North  Level Estimated
07:22AM 28.3130 128.4058 18° North  Level Estimated
07:23AM 28.4091 128.4411 18° North  Level Estimated
07:24AM 28.5053 128.4764 18° North  Level Estimated
07:25AM 28.6014 128.5117 18° North  Level Estimated
07:26AM 28.6975 128.5472 18° North  Level Estimated
07:27AM 28.7936 128.5827 18° North  Level Estimated
07:28AM 28.8897 128.6182 18° North  Level Estimated
07:29AM 28.9858 128.6539 18° North  Level Estimated
07:30AM 29.0819 128.6896 18° North  Level Estimated
07:31AM 29.1779 128.7253 18° North  Level Estimated
07:32AM 29.2740 128.7612 18° North  Level Estimated
07:33AM 29.3700 128.7971 18° North  Level Estimated
07:34AM 29.4660 128.8330 18° North  Level Estimated
07:35AM 29.5620 128.8691 18° North  Level Estimated
07:36AM 29.6581 128.9052 18° North  Level Estimated
07:37AM 29.7541 128.9414 18° North  Level Estimated
07:38AM 29.8500 128.9776 18° North  Level Estimated
07:39AM 29.9460 129.0139 18° North  Level Estimated
07:40AM 30.0420 129.0503 18° North  Level Estimated
07:41AM 30.1380 129.0868 18° North  Level Estimated
07:42AM 30.2339 129.1233 18° North  Level Estimated
07:43AM 30.3299 129.1599 18° North  Level Estimated
07:44AM 30.4258 129.1966 18° North  Level Estimated
07:45AM 30.5217 129.2333 18° North  Level Estimated
07:46AM 30.6176 129.2701 18° North  Level Estimated
07:47AM 30.7135 129.3070 18° North  Level Estimated
07:48AM 30.8094 129.3440 18° North  Level Estimated
07:49AM 30.9053 129.3810 18° North  Level Estimated
07:50AM 31.0012 129.4181 18° North  Level Estimated
07:51AM 31.0970 129.4553 18° North  Level Estimated
07:52AM 31.1929 129.4926 18° North  Level Estimated
07:53AM 31.2887 129.5299 18° North  Level Estimated
07:54AM 31.3846 129.5673 18° North  Level Estimated
07:55AM 31.4804 129.6048 18° North  Level Estimated
07:56AM 31.5762 129.6423 18° North  Level Estimated
07:57AM 31.6720 129.6800 18° North  Level Estimated
07:58AM 31.7678 129.7177 19° North  Level Estimated
07:59AM 31.8635 129.7555 19° North  Level Estimated
08:00AM 31.9593 129.7934 19° North  Level Estimated
08:01AM 32.0550 129.8313 19° North  Level Estimated
08:02AM 32.1508 129.8694 19° North  Level Estimated
08:03AM 32.2465 129.9075 19° North  Level Estimated
08:04AM 32.3422 129.9457 19° North  Level Estimated
08:05AM 32.4490 129.9884 19° North  Level Estimated
08:06AM 32.5558 130.0312 19° North  Level Estimated
08:07AM 32.6626 130.0741 19° North  Level Estimated
08:08AM 32.7694 130.1171 19° North  Level Estimated
08:09AM 32.8761 130.1603 19° North  Level Estimated
08:10AM 32.9828 130.2035 19° North  Level Estimated
08:11AM 33.0895 130.2468 19° North  Level Estimated
08:12AM 33.1962 130.2903 19° North  Level Estimated
08:13AM 33.3029 130.3338 19° North  Level Estimated
08:14AM 33.4096 130.3775 19° North  Level Estimated
08:15AM 33.5162 130.4212 19° North  Level Estimated
08:16AM 33.5866 130.4502 19° North  Level Estimated
08:17AM 33.5866 130.4502 248° West  Level Estimated